Airfield :
LOGIN :

Register | Disclaimer

   EN    FR    IT 

 










Legend :    VFR   Marginal VFR   IFR   Intensive IFR   Very Intensive IFR
Visi :
Ceiling :
>= 8 km
>= 3000ft
5 to 8 km
1000 to 3000 ft
1500m to 5 km
500 to 1000 ft
800 to 1500m
200 to 500 ft
< 800m
< 200 ft
Symbols :   Thunderstorms  Fog  Heavy snow  Heavy precipitations  Wind > 20 kt
SIGMETs :     Misc.  Thunderstorms  Icing  Turbulence  Mountain Waves  Volcanic Ashes







- Airport Elevation : 425 ft
- IATA code : DTM


EDLW - Dortmund

CURRENT METAR :
  • 262250Z AUTO 24005KT 9999 // OVC062/// 05/03 Q1031

EXPIRED METARs :
  • 262220Z AUTO 25003KT 9999 // OVC063/// 06/03 Q1031
  • 262150Z AUTO 26003KT 240V300 9999 // OVC061/// 06/03 Q1031
  • 262120Z AUTO 27003KT 9999 // OVC060/// 07/03 Q1031
  • 262050Z 27003KT 220V310 CAVOK 07/03 Q1030
  • 262020Z 28003KT 240V340 CAVOK 07/03 Q1030

TAF TAF EDLW
Valid from the 26 at 18:00 until the 27 at 18:00 UTC


261700Z 2618/2718 26005KT 9999 BKN030
BECMG 2702/2704 20005KT BKN010
TEMPO 2704/2709 3500 BR BKN005
BECMG 2709/2712 26006KT BKN015
No reported NOTAMs for that airfield.



MET'MAP, your aeronautical weather chart ! - Copyright ORBIFLY December 2007 - Disclaimer

ORBIFLY MET'MAP TEAM :

Programming & Development : Alexandra Zaïnal
Concept & Development : Baudouin d'Aumeries
Co-Development & Prog : Marc-Olivier Méhu
Technical & hardware support : Manuel Goepfert

Contact : metmap@orbifly.com




SOURCES & CREDITS :

   NOAA